Time;durP1;ratioP1;P1;durP2;ratioP2;P2;SDS_P1;SDS_P2;PMS_P1;PMS_P2;Temp;Humidity;BMP_temperature;BMP_pressure;BME280_temperature;BME280_humidity;BME280_pressure;Samples;Min_cycle;Max_cycle;Signal;HPM_P1;HPM_P2
2021/03/15 00:02:09;;;;;;;163.18;108.70;;;307.30;2304.00;;;;;;4938700;29;20039;-87
2021/03/15 00:04:35;;;;;;;116.75;74.20;;;307.20;2304.00;;;;;;4939193;29;20019;-87
2021/03/15 00:07:01;;;;;;;61.10;35.25;;;307.30;2304.00;;;;;;4936407;29;20867;-87
2021/03/15 00:09:27;;;;;;;48.63;29.67;;;307.20;2304.00;;;;;;4919856;29;20105;-87
2021/03/15 00:11:53;;;;;;;33.65;23.17;;;307.20;2304.00;;;;;;4901470;29;20039;-86
2021/03/15 00:14:21;;;;;;;38.50;23.88;;;307.30;2278.40;;;;;;4901799;29;20151;-87
2021/03/15 00:16:47;;;;;;;53.75;33.50;;;307.30;2304.00;;;;;;4902381;29;20032;-87
2021/03/15 00:19:13;;;;;;;75.13;43.40;;;307.50;2304.00;;;;;;4902681;29;20134;-88
2021/03/15 00:21:39;;;;;;;68.68;41.95;;;307.20;2304.00;;;;;;4919339;29;20471;-87
2021/03/15 00:24:08;;;;;;;69.28;42.50;;;282.50;2278.40;;;;;;4915513;29;20070;-87
2021/03/15 00:26:33;;;;;;;77.80;44.15;;;282.40;2278.40;;;;;;4921681;29;20363;-88
2021/03/15 00:28:59;;;;;;;67.07;39.42;;;282.40;2278.40;;;;;;4920309;29;20035;-87
2021/03/15 00:31:26;;;;;;;48.45;27.83;;;282.40;2278.40;;;;;;4921285;29;20418;-88
2021/03/15 00:33:51;;;;;;;31.63;17.15;;;282.20;2278.40;;;;;;4921139;29;20541;-88
2021/03/15 00:36:17;;;;;;;28.13;14.60;;;282.30;2278.40;;;;;;4920887;29;20085;-87
2021/03/15 00:38:43;;;;;;;24.40;12.90;;;282.30;2278.40;;;;;;4909081;29;20467;-88
2021/03/15 00:41:09;;;;;;;23.42;13.02;;;282.30;2278.40;;;;;;4917701;29;20032;-87
2021/03/15 00:43:40;;;;;;;35.10;19.33;;;282.40;2278.40;;;;;;4922382;29;20040;-87
2021/03/15 00:46:06;;;;;;;41.97;23.88;;;282.40;2278.40;;;;;;4902590;29;20459;-88
2021/03/15 00:48:32;;;;;;;37.90;21.00;;;282.30;2278.40;;;;;;4901411;29;20035;-87
2021/03/15 00:50:57;;;;;;;35.67;20.50;;;282.30;2278.40;;;;;;4902074;29;20537;-86
2021/03/15 00:53:23;;;;;;;39.72;24.10;;;282.30;2278.40;;;;;;4901952;29;20119;-88
2021/03/15 00:55:49;;;;;;;45.28;27.13;;;282.30;2278.40;;;;;;4901877;29;20028;-88
2021/03/15 00:58:15;;;;;;;41.85;27.77;;;282.20;2278.40;;;;;;4918488;29;20075;-88
2021/03/15 01:00:41;;;;;;;44.50;26.58;;;282.20;2278.40;;;;;;4918967;29;20024;-87
2021/03/15 01:03:07;;;;;;;46.53;28.73;;;281.90;2278.40;;;;;;4901806;29;20024;-88
2021/03/15 01:05:41;;;;;;;48.92;29.90;;;282.10;2278.40;;;;;;4901515;29;20131;-88
2021/03/15 01:08:10;;;;;;;37.47;22.58;;;281.90;2278.40;;;;;;4901728;29;20032;-88
2021/03/15 01:10:39;;;;;;;42.13;23.52;;;282.00;2278.40;;;;;;4901484;29;20036;-88
2021/03/15 01:13:06;;;;;;;42.22;26.08;;;281.90;2278.40;;;;;;4901500;29;20102;-88
2021/03/15 01:15:32;;;;;;;38.95;23.02;;;281.90;2278.40;;;;;;4901271;29;20074;-88
2021/03/15 01:17:59;;;;;;;37.92;21.27;;;282.00;2278.40;;;;;;4901776;29;20039;-88
2021/03/15 01:20:26;;;;;;;42.30;21.67;;;282.00;2278.40;;;;;;4886509;29;20407;-88
2021/03/15 01:22:55;;;;;;;37.45;18.70;;;282.00;2278.40;;;;;;4901595;29;20447;-88
2021/03/15 01:25:32;;;;;;;34.80;21.23;;;282.00;2278.40;;;;;;4901130;29;20087;-87
2021/03/15 01:27:59;;;;;;;31.60;18.35;;;282.00;2278.40;;;;;;4901561;29;20123;-89
2021/03/15 01:30:30;;;;;;;46.03;24.98;;;282.00;2278.40;;;;;;4901516;29;20036;-89
2021/03/15 01:32:57;;;;;;;80.97;48.13;;;282.00;2278.40;;;;;;4918079;29;20506;-89
2021/03/15 01:35:23;;;;;;;94.05;63.25;;;281.90;2278.40;;;;;;4918254;29;20028;-87
2021/03/15 01:37:50;;;;;;;69.95;46.92;;;281.90;2278.40;;;;;;4901360;29;20031;-89
2021/03/15 01:40:16;;;;;;;71.55;44.17;;;281.80;2278.40;;;;;;4901028;29;20463;-90
2021/03/15 01:42:43;;;;;;;48.05;28.92;;;281.90;2278.40;;;;;;4901694;29;20039;-90
2021/03/15 01:45:09;;;;;;;46.63;28.42;;;282.00;2278.40;;;;;;4933399;29;20036;-90
2021/03/15 01:47:37;;;;;;;48.47;28.08;;;281.70;2278.40;;;;;;4901122;29;20068;-90
2021/03/15 01:50:05;;;;;;;43.80;27.40;;;281.70;2278.40;;;;;;4901242;29;20035;-90
2021/03/15 01:52:32;;;;;;;41.20;24.38;;;281.70;2278.40;;;;;;4901297;29;20382;-90
2021/03/15 01:54:58;;;;;;;60.42;32.05;;;281.70;2278.40;;;;;;4901026;29;20552;-90
2021/03/15 01:57:25;;;;;;;42.45;25.77;;;281.80;2278.40;;;;;;4901026;29;20059;-90
2021/03/15 01:59:51;;;;;;;40.92;26.20;;;281.60;2278.40;;;;;;4900967;29;20080;-89
2021/03/15 02:02:17;;;;;;;43.50;27.23;;;281.60;2278.40;;;;;;4900743;29;20101;-89
2021/03/15 02:04:43;;;;;;;50.08;31.55;;;281.70;2278.40;;;;;;4900726;29;20031;-89
2021/03/15 02:07:10;;;;;;;52.55;32.45;;;256.90;2252.80;;;;;;4901306;29;20028;-89
2021/03/15 02:09:35;;;;;;;108.53;62.15;;;256.90;2252.80;;;;;;4900997;29;20047;-90
2021/03/15 02:12:39;;;;;;;124.28;72.55;;;256.90;2252.80;;;;;;4900926;29;20114;-89
2021/03/15 02:15:28;;;;;;;137.48;83.88;;;256.80;2252.80;;;;;;4900365;29;20092;-89
2021/03/15 02:18:29;;;;;;;80.32;49.72;;;256.90;2252.80;;;;;;4900783;29;20043;-89
2021/03/15 02:21:13;;;;;;;99.93;55.05;;;256.80;2252.80;;;;;;4874665;29;20395;-88
2021/03/15 02:23:50;;;;;;;87.18;51.95;;;256.70;2252.80;;;;;;4901023;29;20028;-89
2021/03/15 02:26:41;;;;;;;74.78;43.58;;;256.60;2252.80;;;;;;4918586;29;20028;-89
2021/03/15 02:29:34;;;;;;;77.90;46.90;;;256.70;2252.80;;;;;;4951715;29;20039;-89
2021/03/15 02:32:15;;;;;;;;;;;256.70;2252.80;;;;;;4935680;29;20122;-88
2021/03/15 02:35:19;;;;;;;70.35;40.22;;;256.60;2252.80;;;;;;4935820;29;20291;-88
2021/03/15 02:37:47;;;;;;;73.63;41.72;;;256.50;2252.80;;;;;;4950948;29;20090;-89
2021/03/15 02:40:34;;;;;;;43.83;24.70;;;256.50;2252.80;;;;;;4954883;29;20032;-87
2021/03/15 02:43:17;;;;;;;29.85;18.77;;;256.60;2252.80;;;;;;4955145;29;20055;-88
2021/03/15 02:45:44;;;;;;;24.15;15.45;;;256.80;2252.80;;;;;;4938986;29;20516;-88
2021/03/15 02:48:12;;;;;;;30.33;17.50;;;256.90;2252.80;;;;;;4938867;29;20474;-88
2021/03/15 02:50:40;;;;;;;29.80;17.48;;;256.90;2252.80;;;;;;4938267;29;20114;-89
2021/03/15 02:53:10;;;;;;;25.77;15.88;;;256.90;2252.80;;;;;;4938711;29;20480;-88
2021/03/15 02:55:37;;;;;;;25.10;14.55;;;256.90;2252.80;;;;;;4939391;29;20086;-89
2021/03/15 02:58:04;;;;;;;22.70;14.70;;;256.90;2252.80;;;;;;4938586;29;20027;-88
2021/03/15 03:00:33;;;;;;;29.15;16.23;;;256.90;2252.80;;;;;;4939098;29;20038;-89
2021/03/15 03:03:01;;;;;;;25.92;15.73;;;256.90;2252.80;;;;;;4938905;29;20466;-90
2021/03/15 03:05:27;;;;;;;29.05;17.02;;;256.90;2252.80;;;;;;4938549;29;20533;-88
2021/03/15 03:07:55;;;;;;;32.85;19.00;;;281.60;2278.40;;;;;;4938732;29;20032;-89
2021/03/15 03:10:23;;;;;;;65.25;37.00;;;256.90;2252.80;;;;;;4938428;29;20027;-88
2021/03/15 03:12:52;;;;;;;96.40;51.88;;;256.90;2252.80;;;;;;4938835;29;20027;-88
2021/03/15 03:15:22;;;;;;;75.15;42.10;;;256.90;2252.80;;;;;;4938578;29;20064;-88
2021/03/15 03:17:49;;;;;;;48.65;31.08;;;256.90;2252.80;;;;;;4938209;29;20039;-88
2021/03/15 03:20:18;;;;;;;90.80;55.10;;;256.80;2252.80;;;;;;4938131;29;20031;-88
2021/03/15 03:22:47;;;;;;;80.45;52.15;;;256.50;2252.80;;;;;;4935137;29;20024;-89
2021/03/15 03:25:16;;;;;;;117.55;68.32;;;256.50;2252.80;;;;;;4922217;29;20035;-88
2021/03/15 03:27:46;;;;;;;105.13;63.05;;;256.50;2252.80;;;;;;4921789;29;20039;-87
2021/03/15 03:30:13;;;;;;;87.47;53.83;;;256.50;2252.80;;;;;;4922418;29;20035;-88
2021/03/15 03:32:43;;;;;;;79.63;47.70;;;256.50;2252.80;;;;;;4921936;29;20126;-88
2021/03/15 03:35:09;;;;;;;77.53;44.42;;;256.60;2252.80;;;;;;4922386;29;20470;-88
2021/03/15 03:37:35;;;;;;;65.78;39.15;;;256.60;2252.80;;;;;;4922139;29;20040;-89
2021/03/15 03:40:01;;;;;;;50.13;30.65;;;256.60;2252.80;;;;;;4921875;29;20028;-88
2021/03/15 03:42:28;;;;;;;52.78;35.40;;;256.60;2252.80;;;;;;4922050;29;20075;-88
2021/03/15 03:44:54;;;;;;;55.35;35.63;;;256.70;2252.80;;;;;;4921641;29;20032;-88
2021/03/15 03:47:20;;;;;;;47.95;30.30;;;256.70;2252.80;;;;;;4921949;29;20118;-88
2021/03/15 03:49:47;;;;;;;45.42;29.08;;;256.80;2252.80;;;;;;4922487;29;20094;-88
2021/03/15 03:52:19;;;;;;;45.63;28.83;;;256.80;2252.80;;;;;;4920635;29;20031;-88
2021/03/15 03:54:53;;;;;;;58.72;32.05;;;256.80;2252.80;;;;;;4937438;29;20114;-88
2021/03/15 03:57:31;;;;;;;69.72;41.65;;;256.80;2252.80;;;;;;4937028;29;20032;-87
2021/03/15 04:00:01;;;;;;;75.10;50.83;;;256.70;2252.80;;;;;;4937282;29;20032;-90
2021/03/15 04:02:28;;;;;;;74.53;52.13;;;256.60;2252.80;;;;;;4937681;29;20168;-91
2021/03/15 04:05:07;;;;;;;58.70;40.28;;;256.60;2252.80;;;;;;4937464;29;20122;-87
2021/03/15 04:07:47;;;;;;;39.10;28.85;;;256.60;2252.80;;;;;;4927768;29;20115;-91
2021/03/15 04:10:13;;;;;;;41.17;29.92;;;256.70;2252.80;;;;;;4918405;29;20035;-91
2021/03/15 04:12:46;;;;;;;45.63;30.20;;;256.60;2252.80;;;;;;4917351;29;20072;-89
2021/03/15 04:15:16;;;;;;;79.88;53.55;;;256.60;2252.80;;;;;;4918242;29;20052;-91
2021/03/15 04:17:43;;;;;;;59.63;38.53;;;256.50;2252.80;;;;;;4902372;29;20534;-90
2021/03/15 04:20:16;;;;;;;56.90;36.13;;;256.50;2252.80;;;;;;4917977;29;20031;-90
2021/03/15 04:22:51;;;;;;;60.75;42.88;;;256.60;2252.80;;;;;;4918166;29;20083;-90
2021/03/15 04:25:19;;;;;;;71.90;48.85;;;256.50;2252.80;;;;;;4918050;29;20043;-89
2021/03/15 04:27:50;;;;;;;93.57;60.70;;;256.60;2252.80;;;;;;4917741;29;20028;-89
2021/03/15 04:30:18;;;;;;;112.07;74.15;;;256.40;2252.80;;;;;;4918417;29;20028;-89
2021/03/15 04:32:47;;;;;;;99.22;69.47;;;256.50;2252.80;;;;;;4918187;29;20032;-90
2021/03/15 04:35:13;;;;;;;98.40;67.78;;;256.50;2252.80;;;;;;4917754;29;20028;-90
2021/03/15 04:37:40;;;;;;;101.97;67.40;;;256.50;2252.80;;;;;;4917846;29;20028;-90
2021/03/15 04:40:07;;;;;;;93.00;61.28;;;256.50;2252.80;;;;;;4917863;29;20036;-89
2021/03/15 04:42:34;;;;;;;79.13;54.85;;;256.50;2252.80;;;;;;4917410;29;20032;-90
2021/03/15 04:45:01;;;;;;;69.47;42.70;;;256.50;2252.80;;;;;;4918536;29;20123;-89
2021/03/15 04:47:28;;;;;;;66.53;39.85;;;256.50;2252.80;;;;;;4917487;29;20028;-89
2021/03/15 04:49:54;;;;;;;90.72;59.67;;;256.30;2252.80;;;;;;4917357;29;20099;-90
2021/03/15 04:52:21;;;;;;;115.13;73.78;;;256.30;2252.80;;;;;;4917605;29;20039;-89
2021/03/15 04:54:47;;;;;;;125.60;88.47;;;256.40;2252.80;;;;;;4917338;29;20052;-90
2021/03/15 04:57:14;;;;;;;111.78;74.40;;;256.30;2252.80;;;;;;4917655;29;20059;-90
2021/03/15 04:59:41;;;;;;;103.90;62.40;;;256.20;2252.80;;;;;;4917059;29;20035;-90
2021/03/15 05:02:08;;;;;;;152.32;103.32;;;256.10;2252.80;;;;;;4917847;29;20028;-90
2021/03/15 05:04:36;;;;;;;129.05;86.15;;;256.10;2252.80;;;;;;4917942;29;20096;-90
2021/03/15 05:07:03;;;;;;;106.65;76.18;;;256.10;2252.80;;;;;;4917709;29;20118;-89
2021/03/15 05:09:31;;;;;;;88.35;55.28;;;256.00;2252.80;;;;;;4916782;29;20028;-90
2021/03/15 05:11:57;;;;;;;56.53;37.85;;;256.00;2252.80;;;;;;4917122;29;20035;-89
2021/03/15 05:14:23;;;;;;;106.45;66.55;;;256.00;2252.80;;;;;;4917064;29;20076;-90
2021/03/15 05:16:50;;;;;;;93.47;63.05;;;231.20;2252.80;;;;;;4917237;29;20387;-90
2021/03/15 05:19:17;;;;;;;102.55;61.92;;;231.10;2252.80;;;;;;4917215;29;20032;-89
2021/03/15 05:21:44;;;;;;;92.60;55.38;;;231.30;2252.80;;;;;;4917316;29;20064;-90
2021/03/15 05:24:12;;;;;;;91.97;55.13;;;231.20;2252.80;;;;;;4916710;29;20028;-89
2021/03/15 05:26:40;;;;;;;108.85;68.00;;;256.10;2252.80;;;;;;4916898;29;20036;-88
2021/03/15 05:29:12;;;;;;;147.68;89.03;;;256.00;2252.80;;;;;;4916966;29;20040;-89
2021/03/15 05:31:43;;;;;;;83.40;53.38;;;231.30;2252.80;;;;;;4916692;29;20032;-89
2021/03/15 05:34:11;;;;;;;92.43;56.05;;;256.00;2252.80;;;;;;4916963;29;20039;-90
2021/03/15 05:36:38;;;;;;;72.07;41.63;;;256.10;2252.80;;;;;;4917237;29;20032;-90
2021/03/15 05:39:05;;;;;;;67.68;40.28;;;256.00;2252.80;;;;;;4916913;29;20057;-88
2021/03/15 05:41:40;;;;;;;59.78;36.92;;;256.00;2252.80;;;;;;4916641;29;20126;-86
2021/03/15 05:44:27;;;;;;;56.35;40.05;;;231.30;2252.80;;;;;;4901085;29;20028;-88
2021/03/15 05:47:11;;;;;;;46.60;30.02;;;231.10;2252.80;;;;;;4901496;29;20387;-91
2021/03/15 05:49:59;;;;;;;46.60;27.40;;;231.00;2252.80;;;;;;4901109;29;20119;-89
2021/03/15 05:52:45;;;;;;;58.60;34.65;;;230.90;2252.80;;;;;;4901062;29;20032;-91
2021/03/15 05:55:29;;;;;;;74.70;41.67;;;231.00;2252.80;;;;;;4917757;29;20036;-88
2021/03/15 05:58:11;;;;;;;82.32;51.58;;;231.00;2252.80;;;;;;4901078;29;20101;-89
2021/03/15 06:00:58;;;;;;;106.53;64.95;;;231.10;2252.80;;;;;;4901101;29;20579;-90
2021/03/15 06:03:58;;;;;;;85.53;54.03;;;231.20;2252.80;;;;;;4901092;29;20029;-90
2021/03/15 06:06:27;;;;;;;87.57;58.53;;;231.20;2252.80;;;;;;4900899;29;20072;-88
2021/03/15 06:09:02;;;;;;;81.95;56.05;;;231.20;2252.80;;;;;;4916732;29;20029;-89
2021/03/15 06:11:43;;;;;;;74.35;45.97;;;231.30;2252.80;;;;;;4918808;29;20039;-89
2021/03/15 06:14:10;;;;;;;63.97;35.95;;;256.00;2252.80;;;;;;4920095;29;20122;-90
2021/03/15 06:16:36;;;;;;;42.20;24.50;;;256.10;2252.80;;;;;;4920359;29;20032;-89
2021/03/15 06:19:02;;;;;;;38.90;21.88;;;256.20;2252.80;;;;;;4920124;29;20048;-89
2021/03/15 06:21:28;;;;;;;52.63;24.38;;;256.20;2252.80;;;;;;4920383;29;20521;-88
2021/03/15 06:23:59;;;;;;;60.78;31.90;;;256.30;2252.80;;;;;;4920227;29;20092;-89
2021/03/15 06:26:25;;;;;;;54.17;28.73;;;256.30;2252.80;;;;;;4920417;29;20559;-90
2021/03/15 06:28:52;;;;;;;94.10;54.28;;;256.40;2252.80;;;;;;4920405;29;20477;-89
2021/03/15 06:31:18;;;;;;;113.47;72.18;;;256.30;2252.80;;;;;;4919791;29;20087;-88
2021/03/15 06:33:47;;;;;;;103.90;70.20;;;256.20;2252.80;;;;;;4920116;29;20558;-89
2021/03/15 06:36:14;;;;;;;179.50;117.45;;;256.10;2252.80;;;;;;4920752;29;20529;-89
2021/03/15 06:38:42;;;;;;;146.70;98.47;;;256.10;2252.80;;;;;;4919899;29;20036;-89
2021/03/15 06:41:09;;;;;;;157.02;92.82;;;256.10;2252.80;;;;;;4919968;29;20028;-89
2021/03/15 06:43:35;;;;;;;71.45;45.88;;;256.10;2252.80;;;;;;4919889;29;20040;-90
2021/03/15 06:46:01;;;;;;;38.38;26.80;;;256.10;2252.80;;;;;;4919779;29;20036;-89
2021/03/15 06:48:27;;;;;;;49.40;32.33;;;256.10;2252.80;;;;;;4919789;29;20028;-89
2021/03/15 06:50:55;;;;;;;40.47;26.33;;;256.10;2252.80;;;;;;4920211;29;20427;-89
2021/03/15 06:53:21;;;;;;;56.25;33.40;;;256.10;2252.80;;;;;;4919944;29;20036;-89
2021/03/15 06:55:50;;;;;;;48.90;30.23;;;256.10;2252.80;;;;;;4919663;29;20075;-90
2021/03/15 06:58:23;;;;;;;27.67;17.70;;;256.10;2252.80;;;;;;4920034;29;20111;-90
2021/03/15 07:01:09;;;;;;;31.75;19.42;;;256.00;2252.80;;;;;;4919586;29;20035;-89
2021/03/15 07:03:36;;;;;;;16.42;10.95;;;231.30;2252.80;;;;;;4904891;29;20032;-88
2021/03/15 07:06:03;;;;;;;26.10;15.20;;;231.30;2252.80;;;;;;4919595;29;20399;-88
2021/03/15 07:08:30;;;;;;;25.17;15.35;;;231.30;2252.80;;;;;;4919581;29;20493;-89
2021/03/15 07:10:56;;;;;;;21.92;14.30;;;231.20;2252.80;;;;;;4920293;29;20032;-88
2021/03/15 07:13:24;;;;;;;35.92;20.73;;;231.10;2252.80;;;;;;4903775;29;20032;-88
2021/03/15 07:28:09;;;;;;;22.55;16.30;;;230.90;2252.80;;;;;;4920615;29;20536;-87
2021/03/15 08:08:55;;;;;;;16.08;11.77;;;204.90;2252.80;;;;;;4982042;28;20042;-79
2021/03/15 08:11:32;;;;;;;11.13;8.18;;;180.10;2252.80;;;;;;4961389;28;20035;-78
2021/03/15 08:14:02;;;;;;;8.98;6.63;;;179.90;2252.80;;;;;;4960283;28;20066;-77
2021/03/15 08:16:31;;;;;;;19.98;13.10;;;179.80;2252.80;;;;;;4976613;28;20031;-78
2021/03/15 08:19:32;;;;;;;15.23;8.95;;;179.80;2252.80;;;;;;4963226;28;20016;-79
2021/03/15 08:22:02;;;;;;;18.60;11.50;;;179.70;2252.80;;;;;;4970334;29;20034;-78
2021/03/15 08:24:32;;;;;;;14.75;7.85;;;179.70;2252.80;;;;;;4949565;29;20091;-76
2021/03/15 08:27:00;;;;;;;21.00;12.75;;;179.60;2252.80;;;;;;4947633;29;20031;-76
2021/03/15 08:29:26;;;;;;;17.38;11.48;;;179.50;2252.80;;;;;;4948124;29;20025;-76
2021/03/15 08:31:55;;;;;;;15.18;9.25;;;179.50;2252.80;;;;;;4947281;29;20050;-76
2021/03/15 08:34:24;;;;;;;19.13;13.80;;;179.50;2252.80;;;;;;4950837;29;20055;-77
2021/03/15 08:36:50;;;;;;;22.27;14.27;;;179.40;2252.80;;;;;;4950688;29;20139;-76
2021/03/15 08:39:31;;;;;;;14.73;9.98;;;179.30;2252.80;;;;;;4934419;29;20023;-74
2021/03/15 08:42:09;;;;;;;17.05;9.77;;;179.20;2252.80;;;;;;4937686;28;20038;-75
2021/03/15 08:44:39;;;;;;;17.38;11.93;;;179.30;2252.80;;;;;;4942367;29;20027;-75
2021/03/15 08:47:05;;;;;;;21.38;13.70;;;179.30;2252.80;;;;;;4955636;29;20038;-75
2021/03/15 08:49:32;;;;;;;18.27;11.57;;;179.40;2252.80;;;;;;4936414;29;20031;-75
2021/03/15 08:51:58;;;;;;;20.02;13.48;;;179.30;2252.80;;;;;;4929093;29;20024;-75
2021/03/15 08:54:47;;;;;;;16.05;10.02;;;179.30;2252.80;;;;;;4954834;28;20425;-77
2021/03/15 08:57:30;;;;;;;16.17;10.88;;;179.20;2252.80;;;;;;4950820;29;20074;-77
2021/03/15 08:59:57;;;;;;;19.02;13.70;;;154.50;2252.80;;;;;;4942840;29;20409;-77
2021/03/15 09:02:36;;;;;;;23.55;16.65;;;154.20;2252.80;;;;;;4942493;29;20027;-77
2021/03/15 09:05:20;;;;;;;22.35;15.00;;;154.30;2252.80;;;;;;4956291;28;20042;-78
2021/03/15 09:07:46;;;;;;;14.90;10.63;;;154.10;2252.80;;;;;;4971447;28;20034;-78
2021/03/15 09:10:24;;;;;;;11.57;8.45;;;154.00;2252.80;;;;;;4968982;28;20409;-79
2021/03/15 09:13:27;;;;;;;16.08;11.13;;;153.90;2252.80;;;;;;4964721;28;20033;-78
2021/03/15 09:15:58;;;;;;;11.10;7.82;;;153.60;2252.80;;;;;;4927433;29;20039;-78
2021/03/15 09:18:48;;;;;;;14.82;9.63;;;153.70;2252.80;;;;;;4957372;28;20031;-79
2021/03/15 09:21:26;;;;;;;25.95;15.10;;;153.80;2252.80;;;;;;4965044;28;20050;-78
2021/03/15 09:23:55;;;;;;;27.75;17.40;;;153.70;2252.80;;;;;;4966955;28;20074;-79
2021/03/15 09:26:44;;;;;;;21.77;15.02;;;153.70;2252.80;;;;;;4967160;28;20038;-79
2021/03/15 09:29:10;;;;;;;12.60;8.82;;;153.60;2252.80;;;;;;4959047;28;20121;-78
2021/03/15 09:31:36;;;;;;;13.05;9.05;;;128.90;2252.80;;;;;;4964207;28;20042;-78
2021/03/15 09:34:07;;;;;;;11.35;8.85;;;128.80;2252.80;;;;;;4947729;28;20023;-77
2021/03/15 09:37:26;;;;;;;16.38;13.45;;;128.60;2252.80;;;;;;4950092;29;20028;-79
2021/03/15 09:40:40;;;;;;;20.63;13.70;;;128.60;2252.80;;;;;;4935695;29;20027;-79
2021/03/15 09:43:20;;;;;;;17.85;12.60;;;128.50;2252.80;;;;;;4952041;29;20034;-79
2021/03/15 09:45:54;;;;;;;30.45;20.20;;;128.40;2252.80;;;;;;4948945;29;20037;-79
2021/03/15 09:48:22;;;;;;;34.85;21.73;;;128.60;2252.80;;;;;;4956308;29;20020;-79
2021/03/15 09:50:57;;;;;;;45.92;29.13;;;128.60;2252.80;;;;;;4958191;29;20051;-79
2021/03/15 09:53:23;;;;;;;28.85;18.20;;;128.70;2252.80;;;;;;4958691;28;20026;-75
2021/03/15 09:55:49;;;;;;;18.20;12.32;;;128.70;2252.80;;;;;;4960245;28;20031;-75
2021/03/15 09:58:17;;;;;;;28.33;17.92;;;128.50;2252.80;;;;;;4976946;28;20077;-75
2021/03/15 10:00:44;;;;;;;25.67;17.38;;;128.50;2252.80;;;;;;4973630;28;20085;-74
2021/03/15 10:03:21;;;;;;;30.92;22.55;;;128.40;2252.80;;;;;;4959475;28;20031;-77
2021/03/15 10:05:54;;;;;;;22.02;15.43;;;128.50;2252.80;;;;;;4958552;28;20094;-76
2021/03/15 10:08:20;;;;;;;34.17;23.27;;;128.50;2252.80;;;;;;4976308;28;20026;-75
2021/03/15 10:10:46;;;;;;;39.90;31.27;;;128.70;2252.80;;;;;;4958494;28;20027;-75
2021/03/15 10:13:12;;;;;;;27.98;17.77;;;128.70;2252.80;;;;;;4959132;28;20027;-75
2021/03/15 10:15:39;;;;;;;40.35;27.77;;;128.60;2252.80;;;;;;4959242;28;20038;-77
2021/03/15 10:18:06;;;;;;;52.28;26.80;;;128.60;2252.80;;;;;;4954808;28;20035;-78
2021/03/15 10:20:34;;;;;;;33.50;19.85;;;128.70;2252.80;;;;;;4961431;28;20465;-77
2021/03/15 10:23:14;;;;;;;27.65;16.90;;;128.70;2252.80;;;;;;4960079;28;20393;-76
2021/03/15 10:25:56;;;;;;;28.98;17.70;;;128.60;2252.80;;;;;;4957460;28;20043;-77
2021/03/15 10:28:23;;;;;;;34.28;22.13;;;128.50;2252.80;;;;;;4956318;28;20091;-77
2021/03/15 10:30:49;;;;;;;25.63;16.90;;;128.50;2252.80;;;;;;4952308;28;20051;-77
2021/03/15 10:33:18;;;;;;;16.08;10.93;;;128.40;2252.80;;;;;;4962579;28;20031;-77
2021/03/15 10:35:45;;;;;;;30.73;19.83;;;128.30;2252.80;;;;;;4969278;28;20050;-77
2021/03/15 10:38:12;;;;;;;27.27;18.23;;;128.10;2252.80;;;;;;4974692;28;20023;-77
2021/03/15 10:40:39;;;;;;;41.60;26.27;;;128.40;2252.80;;;;;;4952180;28;20471;-77
2021/03/15 10:43:05;;;;;;;36.55;31.60;;;128.50;2252.80;;;;;;4950846;28;20039;-76
2021/03/15 10:45:31;;;;;;;37.92;27.55;;;128.60;2252.80;;;;;;4949915;28;20050;-78
2021/03/15 10:48:03;;;;;;;28.42;16.65;;;128.60;2252.80;;;;;;4950893;28;20026;-77
2021/03/15 10:50:31;;;;;;;27.63;17.65;;;128.70;2252.80;;;;;;4950523;28;20037;-77
2021/03/15 10:53:12;;;;;;;24.58;16.30;;;128.80;2252.80;;;;;;4959646;28;20106;-77
2021/03/15 10:55:38;;;;;;;26.73;17.55;;;128.90;2252.80;;;;;;4950481;28;20090;-77
2021/03/15 10:58:13;;;;;;;26.50;16.75;;;153.60;2252.80;;;;;;4951555;28;20058;-78
2021/03/15 11:00:49;;;;;;;17.63;11.05;;;128.90;2252.80;;;;;;4958436;28;20054;-77
2021/03/15 11:03:22;;;;;;;28.02;18.27;;;153.70;2252.80;;;;;;4981411;28;20037;-76
2021/03/15 11:06:01;;;;;;;31.38;20.73;;;153.60;2252.80;;;;;;4950614;28;20055;-77
2021/03/15 11:08:27;;;;;;;26.35;17.83;;;153.60;2252.80;;;;;;4968636;28;20035;-76
2021/03/15 11:10:53;;;;;;;67.05;36.63;;;153.60;2252.80;;;;;;4966725;28;20492;-77
2021/03/15 11:13:21;;;;;;;35.40;22.60;;;153.70;2252.80;;;;;;4964308;28;20086;-77
2021/03/15 11:15:48;;;;;;;49.10;30.95;;;153.80;2252.80;;;;;;4952195;28;20087;-78
2021/03/15 11:18:17;;;;;;;37.85;26.33;;;153.80;2252.80;;;;;;4952279;28;20045;-77
2021/03/15 11:20:51;;;;;;;24.83;19.30;;;153.80;2252.80;;;;;;4961629;28;20027;-77
2021/03/15 11:23:34;;;;;;;20.33;14.90;;;153.80;2252.80;;;;;;4962187;28;20093;-77
2021/03/15 11:26:26;;;;;;;51.00;36.05;;;153.80;2252.80;;;;;;4970727;28;20027;-78
2021/03/15 11:28:56;;;;;;;14.57;11.27;;;153.90;2252.80;;;;;;4975216;28;20027;-78
2021/03/15 11:31:30;;;;;;;27.10;20.35;;;153.80;2252.80;;;;;;4975235;28;20039;-78
2021/03/15 11:33:59;;;;;;;21.88;16.70;;;154.00;2252.80;;;;;;4976239;28;20015;-78
2021/03/15 11:36:28;;;;;;;10.57;7.05;;;153.80;2252.80;;;;;;4964549;28;20038;-77
2021/03/15 11:39:00;;;;;;;18.27;11.82;;;153.80;2252.80;;;;;;4954604;28;20109;-76
2021/03/15 11:41:28;;;;;;;12.05;7.63;;;153.80;2252.80;;;;;;4962512;28;20485;-77
2021/03/15 11:43:55;;;;;;;14.68;10.45;;;153.70;2252.80;;;;;;4961563;28;20127;-77
2021/03/15 11:46:22;;;;;;;16.73;12.63;;;153.80;2252.80;;;;;;4956511;29;20055;-77
2021/03/15 11:48:48;;;;;;;15.38;10.98;;;153.80;2252.80;;;;;;4940590;29;20031;-77
2021/03/15 11:51:16;;;;;;;16.35;11.13;;;153.70;2252.80;;;;;;4944845;29;20461;-77
2021/03/15 11:53:43;;;;;;;11.60;8.40;;;153.60;2252.80;;;;;;4943336;28;20078;-78
2021/03/15 11:56:09;;;;;;;11.40;8.00;;;153.60;2252.80;;;;;;4944624;29;20126;-77
2021/03/15 11:58:36;;;;;;;8.55;6.82;;;153.60;2252.80;;;;;;4941702;29;20081;-77
2021/03/15 12:01:03;;;;;;;11.65;7.88;;;153.60;2252.80;;;;;;4941519;29;20035;-77
2021/03/15 12:03:29;;;;;;;14.30;9.52;;;153.60;2252.80;;;;;;4941965;28;20481;-77
2021/03/15 12:05:54;;;;;;;11.85;7.95;;;153.60;2252.80;;;;;;4957380;28;20194;-77
2021/03/15 12:08:20;;;;;;;14.93;10.52;;;153.80;2252.80;;;;;;4956993;28;20031;-78
2021/03/15 12:10:46;;;;;;;19.23;11.70;;;153.60;2252.80;;;;;;4952363;29;20165;-77
2021/03/15 12:13:12;;;;;;;24.13;12.43;;;153.60;2252.80;;;;;;4963240;28;20448;-77
2021/03/15 12:15:38;;;;;;;11.15;8.30;;;153.60;2252.80;;;;;;4962341;28;20098;-78
2021/03/15 12:18:08;;;;;;;14.57;8.77;;;153.60;2252.80;;;;;;4978177;28;20465;-75
2021/03/15 12:20:35;;;;;;;15.82;11.13;;;128.80;2252.80;;;;;;4977544;28;20030;-76
2021/03/15 12:23:01;;;;;;;29.83;19.20;;;153.60;2252.80;;;;;;4964128;28;20094;-76
2021/03/15 12:25:27;;;;;;;18.25;12.35;;;153.60;2252.80;;;;;;4963637;28;20043;-77
2021/03/15 12:27:53;;;;;;;20.50;12.07;;;128.90;2252.80;;;;;;4963326;28;20031;-76
2021/03/15 12:30:20;;;;;;;22.52;15.40;;;128.90;2252.80;;;;;;4963268;28;20031;-77
2021/03/15 12:32:46;;;;;;;25.05;15.88;;;128.90;2252.80;;;;;;4962861;28;20465;-75
2021/03/15 12:35:13;;;;;;;22.27;13.40;;;128.90;2252.80;;;;;;4961355;28;20031;-76
2021/03/15 12:37:39;;;;;;;18.67;11.95;;;128.80;2252.80;;;;;;4964216;28;20031;-76
2021/03/15 12:40:06;;;;;;;14.95;8.98;;;153.60;2252.80;;;;;;4961582;28;20023;-76
2021/03/15 12:42:32;;;;;;;11.80;8.30;;;128.90;2252.80;;;;;;4977381;28;20490;-76
2021/03/15 12:44:58;;;;;;;15.88;9.90;;;128.80;2252.80;;;;;;4978228;28;20453;-77
2021/03/15 12:47:24;;;;;;;16.33;9.40;;;128.70;2252.80;;;;;;4960778;28;20034;-76
2021/03/15 12:49:50;;;;;;;16.30;10.60;;;128.80;2252.80;;;;;;4978367;28;20129;-76
2021/03/15 12:52:16;;;;;;;17.83;11.15;;;128.70;2252.80;;;;;;4978999;28;20033;-76
2021/03/15 12:54:42;;;;;;;11.55;8.68;;;128.60;2252.80;;;;;;4961692;28;20079;-78
2021/03/15 12:57:08;;;;;;;24.35;14.73;;;128.70;2252.80;;;;;;4977824;28;20034;-76
2021/03/15 12:59:34;;;;;;;16.75;11.85;;;128.70;2252.80;;;;;;4961396;28;20030;-76
2021/03/15 13:02:00;;;;;;;12.32;8.73;;;128.60;2252.80;;;;;;4958655;28;20035;-76
2021/03/15 13:04:25;;;;;;;12.63;9.15;;;128.70;2252.80;;;;;;4940364;28;20074;-75
2021/03/15 13:06:52;;;;;;;22.35;14.98;;;128.50;2252.80;;;;;;4927724;28;20038;-75